Time;durP1;ratioP1;P1;durP2;ratioP2;P2;SDS_P1;SDS_P2;PMS_P1;PMS_P2;Temp;Humidity;BMP_temperature;BMP_pressure;BME280_temperature;BME280_humidity;BME280_pressure;Samples;Min_cycle;Max_cycle;Signal;HPM_P1;HPM_P2
2022/01/22 00:00:18;;;;;;;13.70;5.60;;;;;;;;;;8434746;28;20044;-73
2022/01/22 00:04:41;;;;;;;10.63;4.75;;;;;;;;;;8434345;28;20072;-73
2022/01/22 00:08:43;;;;;;;13.75;5.15;;;;;;;;;;8434703;28;20051;-73
2022/01/22 00:13:07;;;;;;;12.60;5.03;;;;;;;;;;8455630;28;20095;-73
2022/01/22 00:17:10;;;;;;;18.63;5.03;;;;;;;;;;8441312;28;20123;-73
2022/01/22 00:21:12;;;;;;;9.48;4.22;;;;;;;;;;8433925;28;20067;-73
2022/01/22 00:25:16;;;;;;;12.38;5.05;;;;;;;;;;8433754;28;20051;-73
2022/01/22 00:29:21;;;;;;;12.48;5.65;;;;;;;;;;8433672;28;20048;-73
2022/01/22 00:33:23;;;;;;;18.58;5.70;;;;;;;;;;8452758;28;20134;-74
2022/01/22 00:37:26;;;;;;;8.80;5.13;;;;;;;;;;8466964;28;20055;-74
2022/01/22 00:41:28;;;;;;;13.95;5.10;;;;;;;;;;8466022;28;20047;-74
2022/01/22 00:45:32;;;;;;;8.93;4.65;;;;;;;;;;8450898;28;20040;-73
2022/01/22 00:49:35;;;;;;;14.13;4.88;;;;;;;;;;8432963;28;20040;-73
2022/01/22 00:53:38;;;;;;;19.05;5.78;;;;;;;;;;8436885;28;20482;-73
2022/01/22 00:57:41;;;;;;;15.68;6.00;;;;;;;;;;8459471;28;20482;-73
2022/01/22 01:01:46;;;;;;;19.60;5.95;;;;;;;;;;8463822;28;20044;-73
2022/01/22 01:05:48;;;;;;;15.63;6.43;;;;;;;;;;8453122;28;20043;-73
2022/01/22 01:09:51;;;;;;;13.27;5.75;;;;;;;;;;8446608;28;20096;-73
2022/01/22 01:13:58;;;;;;;15.90;5.35;;;;;;;;;;8451654;28;20044;-73
2022/01/22 01:32:09;;;;;;;9.30;4.85;;;;;;;;;;8448977;28;20407;-73
2022/01/22 01:35:32;;;;;;;8.20;4.13;;;;;;;;;;8417413;28;20040;-73
2022/01/22 01:39:37;;;;;;;12.57;4.43;;;;;;;;;;8413124;28;20067;-73
2022/01/22 01:43:39;;;;;;;17.10;5.38;;;;;;;;;;8410485;28;20048;-73
2022/01/22 01:47:45;;;;;;;14.07;6.35;;;;;;;;;;8396122;28;20422;-73
2022/01/22 01:51:49;;;;;;;11.02;5.85;;;;;;;;;;8396806;28;20496;-73
2022/01/22 01:56:04;;;;;;;11.27;5.05;;;;;;;;;;8398112;28;20156;-72
2022/01/22 02:00:14;;;;;;;13.82;5.70;;;;;;;;;;8397939;28;20511;-73
2022/01/22 02:04:17;;;;;;;9.30;4.93;;;;;;;;;;8396945;28;20102;-73
2022/01/22 02:08:22;;;;;;;8.60;4.65;;;;;;;;;;8397620;28;20358;-73
2022/01/22 02:12:44;;;;;;;10.70;5.20;;;;;;;;;;8396960;28;20101;-73
2022/01/22 02:25:31;;;;;;;12.45;6.68;;;;;;;;;;8396855;28;20044;-73
2022/01/22 02:29:34;;;;;;;21.05;6.97;;;;;;;;;;8419376;28;20048;-73
2022/01/22 02:33:49;;;;;;;22.52;8.27;;;;;;;;;;8430587;28;20051;-73
2022/01/22 02:37:58;;;;;;;14.52;6.93;;;;;;;;;;8430053;28;20079;-73
2022/01/22 02:42:01;;;;;;;20.80;7.22;;;;;;;;;;8430060;28;20438;-73
2022/01/22 02:46:03;;;;;;;15.20;7.85;;;;;;;;;;8429974;28;20097;-74
2022/01/22 02:50:07;;;;;;;16.17;6.75;;;;;;;;;;8430388;28;20412;-73
2022/01/22 02:54:11;;;;;;;20.50;7.38;;;;;;;;;;8430247;28;20040;-73
2022/01/22 02:58:14;;;;;;;17.90;6.45;;;;;;;;;;8429692;28;20044;-73
2022/01/22 03:02:16;;;;;;;14.63;6.63;;;;;;;;;;8429607;28;20043;-73
2022/01/22 03:06:19;;;;;;;19.13;7.28;;;;;;;;;;8429585;28;20055;-73
2022/01/22 03:10:26;;;;;;;13.05;6.45;;;;;;;;;;8430235;28;20044;-73
2022/01/22 03:18:55;;;;;;;14.38;6.10;;;;;;;;;;8422979;28;20059;-73
2022/01/22 03:23:08;;;;;;;14.80;7.20;;;;;;;;;;8436745;28;20108;-73
2022/01/22 03:27:23;;;;;;;23.27;7.07;;;;;;;;;;8435460;28;20103;-72
2022/01/22 03:31:26;;;;;;;15.95;5.85;;;;;;;;;;8435550;28;20480;-72
2022/01/22 03:35:34;;;;;;;20.83;6.82;;;;;;;;;;8435250;28;20135;-73
2022/01/22 03:39:37;;;;;;;28.27;9.48;;;;;;;;;;8435419;28;20047;-73
2022/01/22 03:43:40;;;;;;;27.75;8.52;;;;;;;;;;8435265;28;20483;-73
2022/01/22 03:47:44;;;;;;;15.15;7.47;;;;;;;;;;8435059;28;20040;-73
2022/01/22 03:51:46;;;;;;;17.33;7.00;;;;;;;;;;8434996;28;20040;-73
2022/01/22 03:55:58;;;;;;;22.35;6.80;;;;;;;;;;8434761;28;20044;-73
2022/01/22 04:00:03;;;;;;;19.95;7.63;;;;;;;;;;8435413;28;20083;-74
2022/01/22 04:04:09;;;;;;;28.25;10.32;;;;;;;;;;8434449;28;20052;-72
2022/01/22 04:08:15;;;;;;;26.23;9.38;;;;;;;;;;8434362;28;20052;-75
2022/01/22 04:12:24;;;;;;;23.20;8.48;;;;;;;;;;8434218;28;20491;-73
2022/01/22 04:16:29;;;;;;;25.88;10.73;;;;;;;;;;8434366;28;20529;-73
2022/01/22 04:24:54;;;;;;;21.75;8.77;;;;;;;;;;8433859;28;20404;-73
2022/01/22 04:28:57;;;;;;;22.95;8.93;;;;;;;;;;8433416;28;20488;-73
2022/01/22 04:33:04;;;;;;;26.00;10.35;;;;;;;;;;8433533;28;20052;-73
2022/01/22 04:37:07;;;;;;;21.50;9.20;;;;;;;;;;8433855;28;20480;-74
2022/01/22 04:41:09;;;;;;;34.13;9.90;;;;;;;;;;8433203;28;20094;-73
2022/01/22 04:45:19;;;;;;;21.77;8.77;;;;;;;;;;8433520;28;20476;-76
2022/01/22 04:58:03;;;;;;;18.33;8.05;;;;;;;;;;8433111;28;20469;-74
2022/01/22 05:02:06;;;;;;;14.30;6.25;;;;;;;;;;8432504;28;20081;-73
2022/01/22 05:06:10;;;;;;;19.83;7.10;;;;;;;;;;8432866;28;20412;-73
2022/01/22 05:10:13;;;;;;;16.17;7.20;;;;;;;;;;8432362;28;20488;-73
2022/01/22 05:14:15;;;;;;;15.85;6.60;;;;;;;;;;8432612;28;20044;-74
2022/01/22 05:18:18;;;;;;;21.23;7.65;;;;;;;;;;8432604;28;20513;-73
2022/01/22 05:22:46;;;;;;;24.70;8.63;;;;;;;;;;8432376;28;20158;-73
2022/01/22 05:27:21;;;;;;;17.65;7.30;;;;;;;;;;8432301;28;20052;-73
2022/01/22 05:31:37;;;;;;;12.80;6.60;;;;;;;;;;8398129;28;20041;-73
2022/01/22 05:40:02;;;;;;;28.45;10.68;;;;;;;;;;8397070;28;20093;-73
2022/01/22 05:44:05;;;;;;;27.98;11.48;;;;;;;;;;8397996;28;20048;-74
2022/01/22 05:48:08;;;;;;;27.77;11.85;;;;;;;;;;8397556;28;20053;-73
2022/01/22 05:52:13;;;;;;;24.83;10.02;;;;;;;;;;8397537;28;20040;-73
2022/01/22 06:00:37;;;;;;;13.65;6.93;;;;;;;;;;8397402;28;20048;-73
2022/01/22 06:04:40;;;;;;;14.90;6.85;;;;;;;;;;8397630;28;20484;-73
2022/01/22 06:08:47;;;;;;;19.00;7.72;;;;;;;;;;8397433;28;20057;-74
2022/01/22 06:13:09;;;;;;;27.52;10.77;;;;;;;;;;8418176;28;20044;-74
2022/01/22 06:17:12;;;;;;;17.77;6.95;;;;;;;;;;8414966;28;20101;-74
2022/01/22 06:21:15;;;;;;;15.52;7.07;;;;;;;;;;8413097;28;20107;-73
2022/01/22 06:25:18;;;;;;;11.48;5.68;;;;;;;;;;8416438;28;20052;-73
2022/01/22 06:29:22;;;;;;;16.67;7.70;;;;;;;;;;8425410;28;20412;-73
2022/01/22 06:33:25;;;;;;;28.33;9.40;;;;;;;;;;8430087;28;20059;-73
2022/01/22 06:37:27;;;;;;;25.17;8.85;;;;;;;;;;8430442;28;20105;-75
2022/01/22 06:41:45;;;;;;;27.45;9.68;;;;;;;;;;8430049;28;20511;-73
2022/01/22 06:45:49;;;;;;;27.60;9.43;;;;;;;;;;8430052;28;20044;-73
2022/01/22 06:49:52;;;;;;;28.20;9.45;;;;;;;;;;8430368;28;20047;-74
2022/01/22 06:53:55;;;;;;;17.23;7.43;;;;;;;;;;8436877;28;20398;-73
2022/01/22 06:57:58;;;;;;;24.40;8.57;;;;;;;;;;8434849;28;20056;-79
2022/01/22 07:02:02;;;;;;;24.83;11.60;;;;;;;;;;8428744;28;20074;-82
2022/01/22 07:06:05;;;;;;;29.35;10.63;;;;;;;;;;8433060;28;20149;-73
2022/01/22 07:10:09;;;;;;;24.48;8.52;;;;;;;;;;8433057;28;20059;-72
2022/01/22 07:14:12;;;;;;;36.40;10.55;;;;;;;;;;8436624;28;20479;-73
2022/01/22 07:18:16;;;;;;;30.55;11.93;;;;;;;;;;8435876;28;20044;-73
2022/01/22 07:22:37;;;;;;;24.58;9.02;;;;;;;;;;8436306;28;20044;-73
2022/01/22 07:26:40;;;;;;;14.52;6.20;;;;;;;;;;8436205;28;20136;-72
2022/01/22 07:30:44;;;;;;;21.20;8.57;;;;;;;;;;8467932;28;20047;-72
2022/01/22 07:34:49;;;;;;;25.10;9.05;;;;;;;;;;8469669;28;20403;-72
2022/01/22 07:38:52;;;;;;;17.17;8.55;;;;;;;;;;8468998;28;20044;-72
2022/01/22 07:42:55;;;;;;;17.85;7.68;;;;;;;;;;8469577;28;20044;-72
2022/01/22 07:46:58;;;;;;;24.65;10.77;;;;;;;;;;8467576;28;20047;-73
2022/01/22 07:51:02;;;;;;;17.10;8.30;;;;;;;;;;8434860;28;20538;-73
2022/01/22 07:55:07;;;;;;;11.18;6.25;;;;;;;;;;8434711;28;20131;-72
2022/01/22 07:59:10;;;;;;;19.50;7.28;;;;;;;;;;8435001;28;20121;-73
2022/01/22 08:03:13;;;;;;;19.05;8.15;;;;;;;;;;8433842;28;20492;-73
2022/01/22 08:07:17;;;;;;;15.75;7.88;;;;;;;;;;8434379;28;20067;-73
2022/01/22 08:11:20;;;;;;;18.00;6.55;;;;;;;;;;8434253;28;20040;-73
2022/01/22 08:15:24;;;;;;;17.88;8.63;;;;;;;;;;8467592;28;20043;-73
2022/01/22 08:19:27;;;;;;;14.70;6.70;;;;;;;;;;8434189;28;20089;-72
2022/01/22 08:23:32;;;;;;;21.95;11.25;;;;;;;;;;8449492;28;20073;-73
2022/01/22 08:27:41;;;;;;;10.70;5.68;;;;;;;;;;8465392;28;20055;-73
2022/01/22 08:32:02;;;;;;;15.93;7.78;;;;;;;;;;8466903;28;20072;-72
2022/01/22 08:36:06;;;;;;;13.02;6.03;;;;;;;;;;8460627;28;20202;-75
2022/01/22 08:40:12;;;;;;;22.83;7.50;;;;;;;;;;8449724;28;20433;-74
2022/01/22 08:44:15;;;;;;;19.90;7.13;;;;;;;;;;8465808;28;20092;-73
2022/01/22 08:48:18;;;;;;;22.13;10.30;;;;;;;;;;8465123;28;20044;-73
2022/01/22 08:52:24;;;;;;;33.72;19.15;;;;;;;;;;8465517;28;20449;-73
2022/01/22 08:56:29;;;;;;;27.50;13.57;;;;;;;;;;8465804;28;20508;-73
2022/01/22 09:00:33;;;;;;;21.08;7.75;;;;;;;;;;8466215;28;20048;-75
2022/01/22 09:04:36;;;;;;;17.00;6.95;;;;;;;;;;8466659;28;20472;-73
2022/01/22 09:08:40;;;;;;;38.85;21.95;;;;;;;;;;8466188;28;20518;-74
2022/01/22 09:12:44;;;;;;;28.27;13.98;;;;;;;;;;8465967;28;20055;-73
2022/01/22 09:16:51;;;;;;;23.98;10.15;;;;;;;;;;8466457;28;20047;-72
2022/01/22 09:21:04;;;;;;;11.70;6.22;;;;;;;;;;8465785;28;20130;-73
2022/01/22 09:25:14;;;;;;;16.65;5.85;;;;;;;;;;8465631;28;20043;-73
2022/01/22 09:29:20;;;;;;;12.32;4.93;;;;;;;;;;8465476;28;20146;-74
2022/01/22 09:33:25;;;;;;;18.15;6.38;;;;;;;;;;8465422;28;20044;-73
2022/01/22 09:37:28;;;;;;;16.95;7.05;;;;;;;;;;8465188;28;20048;-73
2022/01/22 09:41:32;;;;;;;18.75;6.78;;;;;;;;;;8465256;28;20040;-72
2022/01/22 09:45:37;;;;;;;20.00;7.40;;;;;;;;;;8458214;28;20039;-72
2022/01/22 09:49:41;;;;;;;59.35;29.27;;;;;;;;;;8445035;28;20075;-72
2022/01/22 09:53:45;;;;;;;16.85;7.38;;;;;;;;;;8462202;28;20097;-73
2022/01/22 09:57:50;;;;;;;52.25;20.17;;;;;;;;;;8441536;28;20051;-75
2022/01/22 10:02:10;;;;;;;26.63;13.48;;;;;;;;;;8448997;28;20044;-74
2022/01/22 10:06:18;;;;;;;16.25;6.35;;;;;;;;;;8457554;28;20040;-73
2022/01/22 10:10:22;;;;;;;15.25;6.25;;;;;;;;;;8441452;28;20039;-74
2022/01/22 10:14:25;;;;;;;17.15;7.47;;;;;;;;;;8431044;28;20445;-73
2022/01/22 10:18:30;;;;;;;33.40;14.85;;;;;;;;;;8429571;28;20054;-74
2022/01/22 10:22:44;;;;;;;58.00;24.67;;;;;;;;;;8429345;28;20040;-74
2022/01/22 10:26:47;;;;;;;23.33;9.27;;;;;;;;;;8429542;28;20036;-74
2022/01/22 10:30:55;;;;;;;23.25;9.75;;;;;;;;;;8440853;28;20507;-76
2022/01/22 10:35:11;;;;;;;35.53;19.30;;;;;;;;;;8461789;28;20127;-75
2022/01/22 10:39:30;;;;;;;40.65;21.02;;;;;;;;;;8458090;28;20395;-74
2022/01/22 10:43:51;;;;;;;23.45;12.43;;;;;;;;;;8462447;28;20040;-75
2022/01/22 10:48:27;;;;;;;20.33;7.75;;;;;;;;;;8460239;28;20074;-74
2022/01/22 10:53:10;;;;;;;20.33;8.05;;;;;;;;;;8456394;28;20479;-72
2022/01/22 10:57:42;;;;;;;19.83;10.27;;;;;;;;;;8459032;28;20535;-73
2022/01/22 11:02:02;;;;;;;10.90;5.90;;;;;;;;;;8454319;28;20058;-72
2022/01/22 11:06:44;;;;;;;17.20;6.05;;;;;;;;;;8454781;28;20105;-72
2022/01/22 11:10:50;;;;;;;18.88;7.47;;;;;;;;;;8443924;28;20499;-72
2022/01/22 11:14:54;;;;;;;12.85;6.15;;;;;;;;;;8453565;28;20043;-72
2022/01/22 11:19:04;;;;;;;13.80;6.97;;;;;;;;;;8461533;28;20047;-72
2022/01/22 11:23:16;;;;;;;16.80;6.03;;;;;;;;;;8456725;28;20057;-73
2022/01/22 11:28:01;;;;;;;18.88;6.82;;;;;;;;;;8461295;28;20506;-71
2022/01/22 11:32:25;;;;;;;13.98;5.90;;;;;;;;;;8462590;28;20043;-72
2022/01/22 11:36:47;;;;;;;14.35;7.00;;;;;;;;;;8456501;28;20415;-75
2022/01/22 11:41:20;;;;;;;20.33;7.80;;;;;;;;;;8463116;28;20047;-71
2022/01/22 11:45:37;;;;;;;18.95;8.10;;;;;;;;;;8465320;28;20048;-72
2022/01/22 11:50:11;;;;;;;25.92;11.52;;;;;;;;;;8455942;28;20067;-72
2022/01/22 11:54:25;;;;;;;21.17;10.95;;;;;;;;;;8468040;28;20138;-71
2022/01/22 11:58:38;;;;;;;23.75;9.38;;;;;;;;;;8467896;28;20496;-72
2022/01/22 12:03:32;;;;;;;19.30;7.13;;;;;;;;;;8468267;28;20051;-72
2022/01/22 12:07:59;;;;;;;;;;;;;;;;;;8468131;28;20047;-71
2022/01/22 12:17:03;;;;;;;8.55;5.43;;;;;;;;;;8443045;28;20043;-71
2022/01/22 12:21:43;;;;;;;11.52;5.32;;;;;;;;;;8433640;28;20047;-72
2022/01/22 12:25:55;;;;;;;16.02;6.38;;;;;;;;;;8462512;28;20039;-71
2022/01/22 12:30:04;;;;;;;32.88;14.18;;;;;;;;;;8462991;28;20491;-72
2022/01/22 12:34:48;;;;;;;14.57;6.13;;;;;;;;;;8463419;28;20400;-71
2022/01/22 12:39:10;;;;;;;27.55;7.95;;;;;;;;;;8457105;28;20043;-72
2022/01/22 12:43:28;;;;;;;43.65;17.50;;;;;;;;;;8455498;28;20092;-71
2022/01/22 12:47:48;;;;;;;30.45;9.70;;;;;;;;;;8457401;28;20047;-72
2022/01/22 12:52:09;;;;;;;21.33;7.22;;;;;;;;;;8464738;28;20073;-73
2022/01/22 12:56:52;;;;;;;35.58;13.45;;;;;;;;;;8458593;28;20131;-75
2022/01/22 13:01:31;;;;;;;47.50;18.45;;;;;;;;;;8463190;28;20046;-75
2022/01/22 13:05:38;;;;;;;15.52;7.65;;;;;;;;;;8458120;28;20139;-80
2022/01/22 13:10:00;;;;;;;22.45;8.50;;;;;;;;;;8458897;28;20058;-77
2022/01/22 13:14:30;;;;;;;22.73;8.48;;;;;;;;;;8449479;28;20036;-73
2022/01/22 13:18:58;;;;;;;20.77;8.52;;;;;;;;;;8463397;28;20086;-73
2022/01/22 13:23:27;;;;;;;50.90;16.30;;;;;;;;;;8441180;28;20067;-73
2022/01/22 13:28:13;;;;;;;17.30;8.10;;;;;;;;;;8442120;28;20059;-73
2022/01/22 13:32:59;;;;;;;24.45;9.50;;;;;;;;;;8456204;28;20044;-74
2022/01/22 13:38:03;;;;;;;15.82;7.57;;;;;;;;;;8457427;28;20479;-74
2022/01/22 13:51:01;;;;;;;22.77;9.15;;;;;;;;;;8441456;28;20586;-73
2022/01/22 13:55:06;;;;;;;61.35;24.73;;;;;;;;;;8440842;28;20395;-74
2022/01/22 13:59:17;;;;;;;61.90;24.42;;;;;;;;;;8438802;28;20048;-74
2022/01/22 14:03:30;;;;;;;36.15;14.82;;;;;;;;;;8436275;28;20047;-75
2022/01/22 14:07:42;;;;;;;21.98;10.15;;;;;;;;;;8446801;28;20052;-73
2022/01/22 14:12:05;;;;;;;;;;;;;;;;;;8440159;28;20064;-73
2022/01/22 14:16:19;;;;;;;18.80;7.70;;;;;;;;;;8442779;28;19924;-72
2022/01/22 14:20:27;;;;;;;61.78;19.95;;;;;;;;;;8446126;28;20062;-72
2022/01/22 14:24:35;;;;;;;16.45;7.22;;;;;;;;;;8463771;28;20407;-73
2022/01/22 14:28:49;;;;;;;22.63;8.80;;;;;;;;;;8462879;28;20051;-73
2022/01/22 14:32:58;;;;;;;22.35;9.15;;;;;;;;;;8445844;28;20419;-72
2022/01/22 14:37:30;;;;;;;35.40;14.18;;;;;;;;;;8464134;28;20380;-73
2022/01/22 14:47:30;;;;;;;74.35;22.80;;;;;;;;;;8445419;28;20490;-73
2022/01/22 14:51:35;;;;;;;24.00;9.50;;;;;;;;;;8456935;28;21367;-77
2022/01/22 14:55:39;;;;;;;166.80;41.10;;;;;;;;;;8463200;28;20052;-75
2022/01/22 14:59:44;;;;;;;101.18;29.55;;;;;;;;;;8463036;28;20047;-73
2022/01/22 15:03:47;;;;;;;53.67;16.60;;;;;;;;;;8457035;28;20043;-73
2022/01/22 15:07:52;;;;;;;35.20;13.13;;;;;;;;;;8450980;28;20052;-73
2022/01/22 15:11:57;;;;;;;25.92;9.07;;;;;;;;;;8459134;28;20555;-80
2022/01/22 15:16:03;;;;;;;33.10;13.45;;;;;;;;;;8466577;28;20407;-73
2022/01/22 15:20:07;;;;;;;23.55;9.75;;;;;;;;;;8464185;28;20039;-75
2022/01/22 15:24:12;;;;;;;37.58;13.38;;;;;;;;;;8463688;28;20043;-74
2022/01/22 15:28:16;;;;;;;79.78;27.05;;;;;;;;;;8468212;28;20438;-74
2022/01/22 15:32:38;;;;;;;22.63;7.95;;;;;;;;;;8460251;28;20047;-72
2022/01/22 15:36:46;;;;;;;16.50;7.77;;;;;;;;;;8460587;28;20048;-72
2022/01/22 15:40:51;;;;;;;18.70;8.45;;;;;;;;;;8447546;28;20040;-72
2022/01/22 15:44:57;;;;;;;23.67;9.43;;;;;;;;;;8459681;28;20050;-72
2022/01/22 15:49:02;;;;;;;23.60;10.35;;;;;;;;;;8464564;28;20502;-76
2022/01/22 15:53:05;;;;;;;30.92;10.05;;;;;;;;;;8468103;28;20498;-73
2022/01/22 15:57:09;;;;;;;23.20;9.50;;;;;;;;;;8466951;28;20053;-73
2022/01/22 16:01:23;;;;;;;25.80;10.10;;;;;;;;;;8467807;28;20575;-74
2022/01/22 16:05:33;;;;;;;25.63;8.45;;;;;;;;;;8467255;28;20135;-73
2022/01/22 16:09:41;;;;;;;68.35;19.55;;;;;;;;;;8467271;28;20429;-74
2022/01/22 16:13:58;;;;;;;24.15;10.10;;;;;;;;;;8467839;28;20050;-74
2022/01/22 16:18:05;;;;;;;27.65;9.43;;;;;;;;;;8458953;28;20044;-75
2022/01/22 16:22:13;;;;;;;26.95;11.63;;;;;;;;;;8463956;28;20130;-73
2022/01/22 16:26:16;;;;;;;43.20;15.88;;;;;;;;;;8465982;28;20051;-73
2022/01/22 16:30:20;;;;;;;30.73;12.60;;;;;;;;;;8466936;28;20052;-73
2022/01/22 16:34:23;;;;;;;95.82;28.65;;;;;;;;;;8466927;28;20051;-73
2022/01/22 16:38:29;;;;;;;87.82;21.05;;;;;;;;;;8465983;28;20050;-78
2022/01/22 16:42:39;;;;;;;38.42;13.95;;;;;;;;;;8451526;28;20402;-74
2022/01/22 16:46:50;;;;;;;47.03;15.65;;;;;;;;;;8463354;28;20040;-73
2022/01/22 16:55:19;;;;;;;31.80;13.52;;;;;;;;;;8464688;28;20047;-77
2022/01/22 16:59:23;;;;;;;37.55;14.45;;;;;;;;;;8462508;28;20445;-75
2022/01/22 17:03:29;;;;;;;36.30;13.90;;;;;;;;;;8452458;28;20467;-75
2022/01/22 17:07:37;;;;;;;50.67;16.80;;;;;;;;;;8456606;28;20044;-75
2022/01/22 17:14:10;;;;;;;48.40;17.25;;;;;;;;;;8460259;28;20044;-74
2022/01/22 17:16:06;;;;;;;29.33;12.55;;;;;;;;;;8445815;28;20044;-74
2022/01/22 17:20:13;;;;;;;32.92;10.82;;;;;;;;;;8452888;28;20059;-74
2022/01/22 17:24:16;;;;;;;63.42;21.52;;;;;;;;;;8428432;28;20043;-74
2022/01/22 17:28:21;;;;;;;45.53;15.82;;;;;;;;;;8431561;28;20055;-74
2022/01/22 17:32:24;;;;;;;43.17;13.95;;;;;;;;;;8431701;28;20051;-73
2022/01/22 17:36:27;;;;;;;45.30;15.43;;;;;;;;;;8430912;28;20503;-73
2022/01/22 17:40:31;;;;;;;37.30;14.25;;;;;;;;;;8431528;28;20048;-73
2022/01/22 17:44:44;;;;;;;43.83;16.02;;;;;;;;;;8431257;28;20451;-73
2022/01/22 17:48:48;;;;;;;37.83;13.23;;;;;;;;;;8431305;28;20072;-73
2022/01/22 17:52:52;;;;;;;38.35;13.38;;;;;;;;;;8431180;28;20069;-73
2022/01/22 17:56:55;;;;;;;26.63;11.73;;;;;;;;;;8431082;28;20060;-73
2022/01/22 18:01:05;;;;;;;50.58;19.65;;;;;;;;;;8431017;28;20047;-73
2022/01/22 18:05:09;;;;;;;34.20;12.73;;;;;;;;;;8430847;28;20464;-75
2022/01/22 18:09:12;;;;;;;46.33;18.13;;;;;;;;;;8430835;28;20051;-73
2022/01/22 18:13:15;;;;;;;102.47;32.05;;;;;;;;;;8430661;28;20040;-73
2022/01/22 18:17:21;;;;;;;36.50;14.00;;;;;;;;;;8430791;28;20136;-74
2022/01/22 18:21:24;;;;;;;27.60;12.27;;;;;;;;;;8430525;28;20062;-73
2022/01/22 18:25:28;;;;;;;56.28;21.13;;;;;;;;;;8430344;28;20052;-73
2022/01/22 18:29:32;;;;;;;61.70;18.65;;;;;;;;;;8430236;28;20052;-74
2022/01/22 18:33:38;;;;;;;23.55;9.73;;;;;;;;;;8430260;28;20048;-74
2022/01/22 18:37:41;;;;;;;30.67;12.85;;;;;;;;;;8430320;28;20097;-74
2022/01/22 18:41:46;;;;;;;41.10;14.50;;;;;;;;;;8445525;28;20043;-76
2022/01/22 18:45:52;;;;;;;50.40;16.05;;;;;;;;;;8436072;28;20482;-74
2022/01/22 18:49:56;;;;;;;31.02;11.45;;;;;;;;;;8444325;28;20369;-74
2022/01/22 18:53:59;;;;;;;165.98;41.28;;;;;;;;;;8443726;28;20046;-73
2022/01/22 18:58:02;;;;;;;73.30;25.15;;;;;;;;;;8452430;28;20530;-73
2022/01/22 19:02:08;;;;;;;105.70;34.65;;;;;;;;;;8455376;28;20503;-74
2022/01/22 19:06:13;;;;;;;52.78;18.35;;;;;;;;;;8452858;28;20499;-73
2022/01/22 19:10:16;;;;;;;97.60;28.38;;;;;;;;;;8455817;28;20101;-74
2022/01/22 19:14:20;;;;;;;194.95;49.35;;;;;;;;;;8454467;28;20044;-73
2022/01/22 19:18:23;;;;;;;158.68;41.00;;;;;;;;;;8454847;28;20048;-73
2022/01/22 19:22:39;;;;;;;137.52;33.45;;;;;;;;;;8455705;28;20036;-73
2022/01/22 19:31:01;;;;;;;272.67;58.08;;;;;;;;;;8450450;28;20054;-75
2022/01/22 19:35:07;;;;;;;65.03;22.75;;;;;;;;;;8453743;28;20036;-73
2022/01/22 19:39:12;;;;;;;41.45;15.63;;;;;;;;;;8403110;28;20052;-73
2022/01/22 19:43:17;;;;;;;122.82;35.22;;;;;;;;;;8462454;28;20043;-73
2022/01/22 19:47:20;;;;;;;87.13;25.13;;;;;;;;;;8469824;28;20409;-74
2022/01/22 19:51:24;;;;;;;77.07;27.23;;;;;;;;;;8468836;28;20043;-73
2022/01/22 19:55:31;;;;;;;40.00;14.20;;;;;;;;;;8468806;28;20040;-76
2022/01/22 19:59:36;;;;;;;31.58;13.10;;;;;;;;;;8467791;28;20138;-73
2022/01/22 20:03:40;;;;;;;25.23;10.95;;;;;;;;;;8468499;28;20044;-73
2022/01/22 20:07:43;;;;;;;70.55;24.55;;;;;;;;;;8468437;28;20048;-72
2022/01/22 20:11:47;;;;;;;50.47;20.27;;;;;;;;;;8468673;28;20509;-72
2022/01/22 20:15:50;;;;;;;55.95;20.33;;;;;;;;;;8468009;28;20052;-73
2022/01/22 20:19:54;;;;;;;98.78;40.17;;;;;;;;;;8468204;28;20059;-73
2022/01/22 20:23:57;;;;;;;59.33;21.30;;;;;;;;;;8467903;28;20131;-73
2022/01/22 20:28:01;;;;;;;32.17;12.55;;;;;;;;;;8467684;28;20059;-74
2022/01/22 20:32:06;;;;;;;62.63;23.20;;;;;;;;;;8468045;28;20066;-74
2022/01/22 20:36:12;;;;;;;35.75;14.43;;;;;;;;;;8467429;28;20101;-73
2022/01/22 20:40:15;;;;;;;37.17;14.13;;;;;;;;;;8467719;28;20044;-73
2022/01/22 20:44:21;;;;;;;30.65;11.85;;;;;;;;;;8467618;28;20475;-72
2022/01/22 20:48:24;;;;;;;32.45;11.93;;;;;;;;;;8467498;28;20407;-73
2022/01/22 20:52:28;;;;;;;46.05;12.95;;;;;;;;;;8466971;28;20039;-72
2022/01/22 20:56:31;;;;;;;29.35;11.63;;;;;;;;;;8467347;28;20464;-73
2022/01/22 21:00:36;;;;;;;32.50;11.77;;;;;;;;;;8466520;28;20058;-73
2022/01/22 21:04:38;;;;;;;25.63;11.73;;;;;;;;;;8466447;28;20078;-72
2022/01/22 21:08:42;;;;;;;27.35;9.95;;;;;;;;;;8466263;28;20044;-72
2022/01/22 21:12:45;;;;;;;23.73;9.07;;;;;;;;;;8466458;28;20063;-73
2022/01/22 21:16:51;;;;;;;38.35;11.45;;;;;;;;;;8466190;28;20043;-72
2022/01/22 21:20:54;;;;;;;22.25;9.23;;;;;;;;;;8466098;28;20044;-73
2022/01/22 21:24:57;;;;;;;29.38;11.07;;;;;;;;;;8466015;28;20040;-72
2022/01/22 21:29:02;;;;;;;32.75;11.43;;;;;;;;;;8460307;28;20056;-73
2022/01/22 21:33:11;;;;;;;29.50;11.35;;;;;;;;;;8431870;28;20048;-73
2022/01/22 21:41:33;;;;;;;26.23;9.98;;;;;;;;;;8447988;28;20536;-73
2022/01/22 21:45:38;;;;;;;25.05;9.57;;;;;;;;;;8446379;28;20139;-73
2022/01/22 21:49:43;;;;;;;28.83;10.80;;;;;;;;;;8431282;28;20040;-73
2022/01/22 21:53:50;;;;;;;32.60;10.43;;;;;;;;;;8431763;28;20054;-73
2022/01/22 21:57:53;;;;;;;28.30;10.60;;;;;;;;;;8431092;28;20040;-72
2022/01/22 22:01:56;;;;;;;29.05;11.50;;;;;;;;;;8430989;28;20086;-73
2022/01/22 22:06:00;;;;;;;33.17;10.48;;;;;;;;;;8430913;28;20093;-73
2022/01/22 22:10:05;;;;;;;25.23;9.77;;;;;;;;;;8430852;28;20090;-73
2022/01/22 22:14:08;;;;;;;23.58;8.75;;;;;;;;;;8431325;28;20047;-73
2022/01/22 22:18:11;;;;;;;28.33;10.05;;;;;;;;;;8431072;28;20075;-73
2022/01/22 22:22:31;;;;;;;27.80;11.48;;;;;;;;;;8431937;28;20047;-73
2022/01/22 22:26:35;;;;;;;28.13;11.00;;;;;;;;;;8432690;28;20098;-73
2022/01/22 22:30:39;;;;;;;27.90;11.13;;;;;;;;;;8432866;28;20059;-72
2022/01/22 22:34:42;;;;;;;23.85;9.68;;;;;;;;;;8432340;28;20043;-73
2022/01/22 22:38:48;;;;;;;28.95;10.73;;;;;;;;;;8432235;28;20040;-73
2022/01/22 22:42:53;;;;;;;22.95;7.80;;;;;;;;;;8431565;28;20048;-74
2022/01/22 22:46:57;;;;;;;27.02;9.20;;;;;;;;;;8430626;28;20545;-72
2022/01/22 22:51:00;;;;;;;30.48;10.25;;;;;;;;;;8430143;28;20123;-73
2022/01/22 22:55:05;;;;;;;30.55;10.57;;;;;;;;;;8429987;28;20078;-74
2022/01/22 22:59:07;;;;;;;32.53;10.40;;;;;;;;;;8430202;28;20507;-73
2022/01/22 23:03:12;;;;;;;27.60;10.25;;;;;;;;;;8430260;28;20127;-72
2022/01/22 23:07:15;;;;;;;28.83;9.40;;;;;;;;;;8430444;28;20052;-73
2022/01/22 23:11:19;;;;;;;27.77;9.57;;;;;;;;;;8429739;28;20055;-73
2022/01/22 23:15:22;;;;;;;30.85;8.98;;;;;;;;;;8430100;28;20040;-72
2022/01/22 23:28:09;;;;;;;18.63;7.55;;;;;;;;;;8429714;28;20060;-72
2022/01/22 23:32:12;;;;;;;21.02;8.38;;;;;;;;;;8429895;28;20044;-73
2022/01/22 23:58:07;;;;;;;19.52;8.18;;;;;;;;;;8434956;28;20090;-75
